Time;durP1;ratioP1;P1;durP2;ratioP2;P2;SDS_P1;SDS_P2;PMS_P1;PMS_P2;Temp;Humidity;BMP_temperature;BMP_pressure;BME280_temperature;BME280_humidity;BME280_pressure;Samples;Min_cycle;Max_cycle;Signal;HPM_P1;HPM_P2
2021/01/24 00:01:59;;;;;;;8.48;6.22;;;6.70;99.90;;;;;;5100858;28;20224;-76
2021/01/24 00:04:25;;;;;;;6.60;5.85;;;6.80;99.90;;;;;;5091184;28;20249;-75
2021/01/24 00:06:51;;;;;;;8.13;6.32;;;6.80;99.90;;;;;;5098067;28;20230;-76
2021/01/24 00:09:18;;;;;;;8.80;6.38;;;6.80;99.90;;;;;;5098577;28;20277;-75
2021/01/24 00:11:45;;;;;;;5.80;5.30;;;6.70;99.90;;;;;;5110598;28;20207;-74
2021/01/24 00:14:11;;;;;;;6.10;4.57;;;6.70;99.90;;;;;;5091455;28;20222;-75
2021/01/24 00:16:38;;;;;;;6.07;5.55;;;6.80;99.90;;;;;;5091207;28;20201;-75
2021/01/24 00:19:04;;;;;;;6.05;5.45;;;6.80;99.90;;;;;;5095941;28;20755;-74
2021/01/24 00:21:30;;;;;;;6.72;5.20;;;6.80;99.90;;;;;;5105078;28;20293;-73
2021/01/24 00:23:56;;;;;;;9.43;6.45;;;6.80;99.90;;;;;;5091365;28;20198;-74
2021/01/24 00:26:23;;;;;;;6.40;5.05;;;6.70;99.90;;;;;;5090913;28;20227;-73
2021/01/24 00:28:50;;;;;;;8.50;6.18;;;6.80;99.90;;;;;;5093780;28;20193;-73
2021/01/24 00:31:16;;;;;;;8.20;6.10;;;6.70;99.90;;;;;;5109444;28;20222;-73
2021/01/24 00:33:43;;;;;;;5.80;5.13;;;6.70;99.90;;;;;;5104714;28;20213;-73
2021/01/24 00:36:09;;;;;;;6.20;5.45;;;6.70;99.90;;;;;;5100628;28;20629;-74
2021/01/24 00:38:36;;;;;;;9.93;6.22;;;6.70;99.90;;;;;;5101517;28;20656;-74
2021/01/24 00:41:04;;;;;;;6.50;5.45;;;6.70;99.90;;;;;;5110481;28;20196;-74
2021/01/24 00:43:31;;;;;;;6.63;5.25;;;6.60;99.90;;;;;;5106521;28;20215;-75
2021/01/24 00:45:58;;;;;;;7.75;4.78;;;6.60;99.90;;;;;;5107930;28;20228;-77
2021/01/24 00:48:25;;;;;;;6.72;5.10;;;6.70;99.90;;;;;;5110889;28;20553;-74
2021/01/24 00:50:51;;;;;;;6.63;6.03;;;6.70;99.90;;;;;;5110010;28;20201;-73
2021/01/24 00:53:18;;;;;;;7.20;5.85;;;6.70;99.90;;;;;;5110999;28;20587;-74
2021/01/24 00:55:44;;;;;;;10.07;6.32;;;6.60;99.90;;;;;;5091526;28;20254;-74
2021/01/24 00:58:11;;;;;;;6.05;5.45;;;6.70;99.90;;;;;;5101069;28;20196;-73
2021/01/24 01:00:37;;;;;;;6.82;6.13;;;6.60;99.90;;;;;;5110976;28;20192;-74
2021/01/24 01:03:05;;;;;;;9.23;6.13;;;6.60;99.90;;;;;;5100389;28;20279;-74
2021/01/24 01:05:31;;;;;;;7.38;5.95;;;6.60;99.90;;;;;;5110293;28;20192;-74
2021/01/24 01:07:57;;;;;;;6.28;5.22;;;6.60;99.90;;;;;;5105051;28;20242;-74
2021/01/24 01:10:24;;;;;;;7.38;5.22;;;6.60;99.90;;;;;;5106043;28;20211;-74
2021/01/24 01:12:50;;;;;;;7.82;6.55;;;6.60;99.90;;;;;;5111247;28;20193;-74
2021/01/24 01:15:16;;;;;;;7.65;6.00;;;6.60;99.90;;;;;;5110745;28;20827;-74
2021/01/24 01:17:43;;;;;;;7.00;6.00;;;6.70;99.90;;;;;;5110075;28;20192;-73
2021/01/24 01:20:10;;;;;;;7.20;6.50;;;6.70;99.90;;;;;;5111202;28;20197;-74
2021/01/24 01:22:37;;;;;;;7.75;5.68;;;6.60;99.90;;;;;;5095586;28;20200;-74
2021/01/24 01:25:04;;;;;;;8.45;4.80;;;6.60;99.90;;;;;;5107014;28;20632;-74
2021/01/24 01:27:30;;;;;;;8.30;6.72;;;6.60;99.90;;;;;;5110549;28;20197;-74
2021/01/24 01:29:56;;;;;;;7.25;5.90;;;6.60;99.90;;;;;;5110640;28;20556;-73
2021/01/24 01:32:23;;;;;;;5.82;5.25;;;6.60;99.90;;;;;;5106347;28;20204;-74
2021/01/24 01:34:50;;;;;;;7.40;5.70;;;6.60;99.90;;;;;;5111063;28;20333;-74
2021/01/24 01:37:17;;;;;;;6.22;5.63;;;6.60;99.90;;;;;;5096997;28;20205;-74
2021/01/24 01:39:44;;;;;;;6.13;5.53;;;6.60;99.90;;;;;;5109496;28;20201;-75
2021/01/24 01:42:12;;;;;;;7.80;5.80;;;6.60;99.90;;;;;;5109239;28;20217;-74
2021/01/24 01:44:38;;;;;;;8.18;6.47;;;6.60;99.90;;;;;;5109405;28;20221;-74
2021/01/24 01:47:05;;;;;;;8.07;6.50;;;6.60;99.90;;;;;;5110209;28;20215;-73
2021/01/24 01:49:31;;;;;;;6.38;5.20;;;6.60;99.90;;;;;;5110301;28;20761;-74
2021/01/24 01:51:57;;;;;;;6.38;5.78;;;6.60;99.90;;;;;;5110599;28;20196;-74
2021/01/24 01:54:25;;;;;;;6.18;5.35;;;6.60;99.90;;;;;;5107702;28;20209;-74
2021/01/24 01:56:53;;;;;;;6.63;5.85;;;6.60;99.90;;;;;;5090504;28;20201;-74
2021/01/24 01:59:19;;;;;;;6.35;5.75;;;6.60;99.90;;;;;;5103540;28;20190;-74
2021/01/24 02:01:57;;;;;;;6.90;5.60;;;6.60;99.90;;;;;;5102709;28;20246;-74
2021/01/24 02:04:28;;;;;;;6.82;5.60;;;6.60;99.90;;;;;;5110304;28;20185;-73
2021/01/24 02:07:00;;;;;;;6.32;5.35;;;6.60;99.90;;;;;;5107682;28;21085;-74
2021/01/24 02:09:34;;;;;;;6.45;5.72;;;6.50;99.90;;;;;;5090580;28;20209;-74
2021/01/24 02:12:12;;;;;;;7.30;5.47;;;6.60;99.90;;;;;;5090274;28;20187;-74
2021/01/24 02:14:42;;;;;;;5.75;5.15;;;6.50;99.90;;;;;;5093184;28;20204;-74
2021/01/24 02:17:13;;;;;;;5.28;4.78;;;6.60;99.90;;;;;;5112856;28;20197;-74
2021/01/24 02:19:49;;;;;;;6.97;5.45;;;6.50;99.90;;;;;;5112351;28;20200;-73
2021/01/24 02:22:17;;;;;;;5.75;5.05;;;6.60;99.90;;;;;;5113720;28;20192;-74
2021/01/24 02:24:51;;;;;;;7.15;5.00;;;6.60;99.90;;;;;;5114428;28;20253;-74
2021/01/24 02:27:22;;;;;;;6.03;5.20;;;6.60;99.90;;;;;;5107079;28;20193;-74
2021/01/24 02:29:58;;;;;;;5.32;4.82;;;6.50;99.90;;;;;;5094719;28;20182;-73
2021/01/24 02:32:27;;;;;;;6.40;5.10;;;6.60;99.90;;;;;;5113448;28;20196;-73
2021/01/24 02:34:56;;;;;;;5.97;5.03;;;6.50;99.90;;;;;;5114229;28;20200;-73
2021/01/24 02:37:23;;;;;;;5.50;5.00;;;6.60;99.90;;;;;;5112949;28;20265;-73
2021/01/24 02:39:50;;;;;;;5.45;4.53;;;6.60;99.90;;;;;;5113871;28;20200;-73
2021/01/24 02:42:17;;;;;;;6.60;4.47;;;6.60;99.90;;;;;;5106375;28;20193;-73
2021/01/24 02:44:44;;;;;;;5.35;4.85;;;6.60;99.90;;;;;;5112334;28;20228;-74
2021/01/24 02:47:11;;;;;;;4.85;4.00;;;6.60;99.90;;;;;;5111747;28;20253;-74
2021/01/24 02:49:42;;;;;;;5.90;4.93;;;6.60;99.90;;;;;;5109246;28;20211;-74
2021/01/24 02:52:09;;;;;;;6.20;5.60;;;6.50;99.90;;;;;;5112493;28;20208;-74
2021/01/24 02:54:37;;;;;;;6.93;4.68;;;6.50;99.90;;;;;;5113874;28;20220;-74
2021/01/24 02:57:04;;;;;;;4.93;4.53;;;6.50;99.90;;;;;;5109159;28;20197;-75
2021/01/24 02:59:31;;;;;;;5.85;4.82;;;6.50;99.90;;;;;;5109117;28;20233;-75
2021/01/24 03:01:57;;;;;;;6.43;5.28;;;6.50;99.90;;;;;;5109339;28;20249;-75
2021/01/24 03:04:24;;;;;;;5.00;4.22;;;6.50;99.90;;;;;;5113539;28;20193;-74
2021/01/24 03:06:51;;;;;;;5.38;4.65;;;6.50;99.90;;;;;;5113162;28;20204;-73
2021/01/24 03:09:18;;;;;;;6.25;5.15;;;6.50;99.90;;;;;;5111190;28;20199;-73
2021/01/24 03:11:47;;;;;;;4.95;4.45;;;6.50;99.90;;;;;;5113485;28;20197;-73
2021/01/24 03:14:19;;;;;;;5.53;4.25;;;6.50;99.90;;;;;;5102610;28;20680;-73
2021/01/24 03:16:48;;;;;;;6.30;4.78;;;6.50;99.90;;;;;;5112792;28;20193;-73
2021/01/24 03:19:18;;;;;;;5.25;4.00;;;6.50;99.90;;;;;;5113103;28;20629;-74
2021/01/24 03:21:46;;;;;;;5.55;4.53;;;6.50;99.90;;;;;;5107661;28;20621;-74
2021/01/24 03:24:17;;;;;;;4.35;3.88;;;6.50;99.90;;;;;;5096352;28;20200;-74
2021/01/24 03:26:44;;;;;;;5.25;4.75;;;6.50;99.90;;;;;;5109372;28;20212;-74
2021/01/24 03:29:12;;;;;;;5.13;4.65;;;6.50;99.90;;;;;;5113150;28;20205;-73
2021/01/24 03:31:40;;;;;;;4.95;4.15;;;6.50;99.90;;;;;;5112789;28;20196;-74
2021/01/24 03:34:18;;;;;;;4.63;4.22;;;6.50;99.90;;;;;;5113292;28;20220;-74
2021/01/24 03:36:45;;;;;;;5.80;4.32;;;6.50;99.90;;;;;;5105617;28;20313;-75
2021/01/24 03:39:11;;;;;;;5.88;5.28;;;6.50;99.90;;;;;;5112661;28;20242;-75
2021/01/24 03:41:38;;;;;;;6.10;4.57;;;6.50;99.90;;;;;;5109701;28;20514;-75
2021/01/24 03:44:06;;;;;;;5.15;4.43;;;6.40;99.90;;;;;;5109876;28;20209;-75
2021/01/24 03:46:33;;;;;;;5.90;4.40;;;6.50;99.90;;;;;;5110027;28;20242;-75
2021/01/24 03:48:59;;;;;;;5.97;4.55;;;6.50;99.90;;;;;;5092668;28;20262;-74
2021/01/24 03:51:26;;;;;;;4.82;4.43;;;6.40;99.90;;;;;;5109099;28;20193;-75
2021/01/24 03:53:52;;;;;;;5.93;4.22;;;6.40;99.90;;;;;;5104042;28;20259;-75
2021/01/24 03:56:18;;;;;;;5.13;3.78;;;6.50;99.90;;;;;;5102998;28;20189;-75
2021/01/24 03:58:45;;;;;;;4.45;3.88;;;6.50;99.90;;;;;;5112279;28;20213;-76
2021/01/24 04:01:12;;;;;;;5.75;3.63;;;6.50;99.90;;;;;;5108799;28;20201;-75
2021/01/24 04:03:38;;;;;;;4.25;3.85;;;6.50;99.90;;;;;;5111443;28;20189;-76
2021/01/24 04:06:05;;;;;;;5.03;4.03;;;6.50;99.90;;;;;;5112132;28;20193;-76
2021/01/24 04:08:31;;;;;;;4.18;3.83;;;6.50;99.90;;;;;;5108833;28;20647;-76
2021/01/24 04:10:57;;;;;;;5.25;4.70;;;6.50;99.90;;;;;;5112056;28;20193;-76
2021/01/24 04:13:24;;;;;;;5.55;4.07;;;6.50;99.90;;;;;;5112087;28;20198;-74
2021/01/24 04:15:51;;;;;;;4.72;4.32;;;6.40;99.90;;;;;;5111485;28;20215;-73
2021/01/24 04:18:17;;;;;;;3.42;3.13;;;6.40;99.90;;;;;;5103736;28;20194;-73
2021/01/24 04:20:44;;;;;;;3.70;3.40;;;6.50;99.90;;;;;;5095005;28;20189;-74
2021/01/24 04:23:10;;;;;;;5.65;3.90;;;6.40;99.90;;;;;;5111933;28;20249;-74
2021/01/24 04:25:36;;;;;;;4.55;4.15;;;6.40;99.90;;;;;;5102181;28;20211;-74
2021/01/24 04:28:03;;;;;;;5.15;4.65;;;6.40;99.90;;;;;;5111610;28;20192;-74
2021/01/24 04:30:29;;;;;;;4.70;4.20;;;6.40;99.90;;;;;;5106758;28;20629;-74
2021/01/24 04:32:56;;;;;;;4.88;4.00;;;6.40;99.90;;;;;;5091320;28;20209;-74
2021/01/24 04:35:23;;;;;;;4.50;4.07;;;6.50;99.90;;;;;;5102129;28;20213;-74
2021/01/24 04:37:49;;;;;;;4.82;4.18;;;6.40;99.90;;;;;;5105377;28;20211;-73
2021/01/24 04:40:16;;;;;;;4.47;4.07;;;6.40;99.90;;;;;;5111078;28;20204;-73
2021/01/24 04:42:42;;;;;;;3.72;3.35;;;6.40;99.90;;;;;;5100449;28;20262;-73
2021/01/24 04:45:10;;;;;;;3.83;3.45;;;6.50;99.90;;;;;;5110876;28;20266;-73
2021/01/24 04:47:39;;;;;;;4.50;4.10;;;6.40;99.90;;;;;;5110866;28;20188;-74
2021/01/24 04:50:08;;;;;;;9.00;3.70;;;6.40;99.90;;;;;;5111618;28;20640;-74
2021/01/24 04:52:34;;;;;;;4.10;3.70;;;6.40;99.90;;;;;;5092544;28;20197;-74
2021/01/24 04:55:03;;;;;;;3.97;3.53;;;6.40;99.90;;;;;;5090958;28;20246;-73
2021/01/24 04:57:29;;;;;;;5.15;4.40;;;6.40;99.90;;;;;;5110103;28;20269;-74
2021/01/24 04:59:56;;;;;;;4.80;4.15;;;6.40;99.90;;;;;;5111447;28;20193;-73
2021/01/24 05:02:22;;;;;;;4.70;3.95;;;6.40;99.90;;;;;;5111621;28;20556;-73
2021/01/24 05:04:49;;;;;;;4.57;3.50;;;6.40;99.90;;;;;;5096775;28;20585;-73
2021/01/24 05:07:16;;;;;;;4.75;4.35;;;6.40;99.90;;;;;;5111258;28;20223;-73
2021/01/24 05:09:46;;;;;;;5.68;4.35;;;6.40;99.90;;;;;;5101783;28;20207;-73
2021/01/24 05:12:12;;;;;;;4.95;3.90;;;6.40;99.90;;;;;;5101621;28;20201;-73
2021/01/24 05:14:40;;;;;;;6.22;4.97;;;6.40;99.90;;;;;;5110865;28;20676;-73
2021/01/24 05:17:07;;;;;;;6.35;4.35;;;6.40;99.90;;;;;;5109477;28;20208;-73
2021/01/24 05:19:34;;;;;;;5.65;4.35;;;6.40;99.90;;;;;;5107968;28;20196;-73
2021/01/24 05:22:02;;;;;;;4.10;3.42;;;6.40;99.90;;;;;;5104221;28;20196;-73
2021/01/24 05:24:30;;;;;;;4.93;4.28;;;6.40;99.90;;;;;;5111080;28;20632;-73
2021/01/24 05:27:05;;;;;;;4.75;4.35;;;6.40;99.90;;;;;;5104284;28;20201;-73
2021/01/24 05:29:31;;;;;;;4.25;3.85;;;6.40;99.90;;;;;;5109854;28;20249;-73
2021/01/24 05:32:02;;;;;;;4.88;4.40;;;6.40;99.90;;;;;;5106992;28;20837;-73
2021/01/24 05:34:30;;;;;;;6.70;5.20;;;6.40;99.90;;;;;;5110749;28;20213;-73
2021/01/24 05:36:57;;;;;;;5.20;4.55;;;6.40;99.90;;;;;;5110380;28;20203;-74
2021/01/24 05:39:23;;;;;;;4.88;4.20;;;6.40;99.90;;;;;;5105944;28;20197;-75
2021/01/24 05:41:52;;;;;;;7.38;4.70;;;6.40;99.90;;;;;;5109637;28;20316;-73
2021/01/24 05:44:20;;;;;;;5.38;4.88;;;6.40;99.90;;;;;;5110786;28;20192;-73
2021/01/24 05:46:47;;;;;;;5.78;4.45;;;6.40;99.90;;;;;;5110341;28;20192;-75
2021/01/24 05:49:20;;;;;;;5.97;4.43;;;6.40;99.90;;;;;;5110004;28;20689;-75
2021/01/24 05:51:58;;;;;;;5.25;4.75;;;6.40;99.90;;;;;;5114935;28;20206;-73
2021/01/24 05:54:45;;;;;;;7.40;5.85;;;6.40;99.90;;;;;;5111773;28;20220;-75
2021/01/24 05:57:14;;;;;;;9.35;5.53;;;6.40;99.90;;;;;;5114761;28;20185;-75
2021/01/24 05:59:51;;;;;;;8.55;6.18;;;6.40;99.90;;;;;;5095282;28;20201;-75
2021/01/24 06:02:18;;;;;;;8.57;5.88;;;6.30;99.90;;;;;;5111378;28;20217;-74
2021/01/24 06:04:45;;;;;;;5.85;4.88;;;6.40;99.90;;;;;;5114747;28;20197;-74
2021/01/24 06:07:12;;;;;;;5.50;5.00;;;6.40;99.90;;;;;;5102435;28;20250;-74
2021/01/24 06:09:38;;;;;;;4.68;4.03;;;6.30;99.90;;;;;;5105713;28;20193;-74
2021/01/24 06:12:08;;;;;;;7.13;6.05;;;6.30;99.90;;;;;;5094147;28;20599;-74
2021/01/24 06:14:39;;;;;;;6.28;5.68;;;6.30;99.90;;;;;;5106742;28;20227;-74
2021/01/24 06:17:14;;;;;;;6.10;5.22;;;6.30;99.90;;;;;;5105846;28;20205;-74
2021/01/24 06:19:43;;;;;;;6.32;5.72;;;6.30;99.90;;;;;;5114499;28;20205;-74
2021/01/24 06:22:14;;;;;;;5.88;5.28;;;6.30;99.90;;;;;;5102995;28;20202;-74
2021/01/24 06:24:45;;;;;;;6.53;5.30;;;6.30;99.90;;;;;;5108671;28;20202;-74
2021/01/24 06:27:18;;;;;;;9.98;6.50;;;6.30;99.90;;;;;;5112253;28;20196;-74
2021/01/24 06:29:50;;;;;;;7.32;6.45;;;6.40;99.90;;;;;;5112603;28;20197;-74
2021/01/24 06:32:26;;;;;;;6.05;5.45;;;6.30;99.90;;;;;;5111322;28;20257;-74
2021/01/24 06:34:54;;;;;;;6.50;5.90;;;6.40;99.90;;;;;;5101513;28;20217;-74
2021/01/24 06:37:21;;;;;;;6.70;5.68;;;6.30;99.90;;;;;;5095621;28;20194;-74
2021/01/24 06:39:52;;;;;;;7.00;6.30;;;6.30;99.90;;;;;;5114237;28;20207;-74
2021/01/24 06:42:38;;;;;;;7.90;7.10;;;6.30;99.90;;;;;;5113848;28;20197;-74
2021/01/24 06:45:27;;;;;;;6.15;5.10;;;6.30;99.90;;;;;;5106295;28;20720;-74
2021/01/24 06:47:54;;;;;;;7.45;6.15;;;6.40;99.90;;;;;;5109169;28;20200;-74
2021/01/24 06:50:45;;;;;;;6.00;5.28;;;6.40;99.90;;;;;;5113680;28;20184;-74
2021/01/24 06:53:14;;;;;;;7.88;7.07;;;6.30;99.90;;;;;;5087261;28;20224;-74
2021/01/24 06:55:52;;;;;;;7.32;6.68;;;6.40;99.90;;;;;;5113543;28;20220;-74
2021/01/24 06:58:23;;;;;;;6.28;5.68;;;6.40;99.90;;;;;;5113201;28;20193;-74
2021/01/24 07:00:50;;;;;;;7.38;6.25;;;6.40;99.90;;;;;;5105102;28;20632;-75
2021/01/24 07:03:18;;;;;;;8.25;7.43;;;6.30;99.90;;;;;;5111765;28;20201;-75
2021/01/24 07:05:45;;;;;;;6.60;6.00;;;6.30;99.90;;;;;;5113076;28;20200;-74
2021/01/24 07:08:30;;;;;;;5.97;5.40;;;6.30;99.90;;;;;;5112905;28;20193;-74
2021/01/24 07:10:57;;;;;;;7.70;6.15;;;6.30;99.90;;;;;;5113467;28;20214;-74
2021/01/24 07:13:35;;;;;;;6.10;5.60;;;6.30;99.90;;;;;;5104378;28;20553;-74
2021/01/24 07:16:04;;;;;;;6.75;5.70;;;6.30;99.90;;;;;;5110391;28;20254;-74
2021/01/24 07:18:38;;;;;;;9.52;7.55;;;6.20;99.90;;;;;;5112377;28;20197;-74
2021/01/24 07:21:05;;;;;;;7.30;6.60;;;6.20;99.90;;;;;;5113483;28;20219;-74
2021/01/24 07:23:32;;;;;;;7.70;6.88;;;6.20;99.90;;;;;;5113607;28;20197;-74
2021/01/24 07:26:01;;;;;;;7.43;6.55;;;6.20;99.90;;;;;;5109450;28;20194;-74
2021/01/24 07:28:29;;;;;;;8.15;7.30;;;6.20;99.90;;;;;;5106038;28;20196;-74
2021/01/24 07:30:58;;;;;;;7.97;7.18;;;6.20;99.90;;;;;;5107256;28;20199;-74
2021/01/24 07:33:27;;;;;;;9.23;6.82;;;6.20;99.90;;;;;;5107807;28;20208;-74
2021/01/24 07:35:56;;;;;;;8.27;6.32;;;6.20;99.90;;;;;;5100908;28;20205;-74
2021/01/24 07:38:24;;;;;;;8.02;6.50;;;6.10;99.90;;;;;;5111586;28;20193;-74
2021/01/24 07:40:52;;;;;;;9.77;7.43;;;6.20;99.90;;;;;;5102737;28;20201;-74
2021/01/24 07:43:19;;;;;;;7.22;5.70;;;6.20;99.90;;;;;;5100946;28;20711;-74
2021/01/24 07:45:46;;;;;;;8.10;6.07;;;6.10;99.90;;;;;;5110238;28;20217;-74
2021/01/24 07:48:13;;;;;;;6.93;6.00;;;6.10;99.90;;;;;;5111932;28;20532;-72
2021/01/24 07:50:41;;;;;;;5.45;4.80;;;6.10;99.90;;;;;;5095221;28;20193;-74
2021/01/24 07:53:08;;;;;;;7.30;5.53;;;6.10;99.90;;;;;;5112727;28;20199;-74
2021/01/24 07:55:37;;;;;;;5.10;4.50;;;6.10;99.90;;;;;;5100602;28;20839;-74
2021/01/24 07:58:05;;;;;;;5.70;5.13;;;6.10;99.90;;;;;;5112341;28;20211;-75
2021/01/24 08:00:34;;;;;;;5.30;4.80;;;6.10;99.90;;;;;;5107890;28;20304;-75
2021/01/24 08:03:00;;;;;;;6.07;5.47;;;6.10;99.90;;;;;;5112009;28;20196;-75
2021/01/24 08:05:29;;;;;;;5.43;4.93;;;6.10;99.90;;;;;;5092443;28;20212;-75
2021/01/24 08:07:56;;;;;;;5.05;4.55;;;6.10;99.90;;;;;;5093985;28;20203;-75
2021/01/24 08:10:22;;;;;;;6.07;4.95;;;6.10;99.90;;;;;;5103240;28;20558;-74
2021/01/24 08:12:49;;;;;;;5.30;4.80;;;6.10;99.90;;;;;;5103642;28;20227;-74
2021/01/24 08:15:15;;;;;;;5.30;4.90;;;6.10;99.90;;;;;;5111866;28;20299;-74
2021/01/24 08:17:42;;;;;;;5.65;5.10;;;6.10;99.90;;;;;;5109450;28;20250;-74
2021/01/24 08:20:10;;;;;;;4.55;4.15;;;6.10;99.90;;;;;;5111316;28;20205;-76
2021/01/24 08:22:37;;;;;;;5.35;4.50;;;6.10;99.90;;;;;;5109854;28;20206;-73
2021/01/24 08:25:07;;;;;;;5.57;3.97;;;6.10;99.90;;;;;;5112223;28;20227;-73
2021/01/24 08:27:34;;;;;;;4.32;3.92;;;6.10;99.90;;;;;;5111813;28;20211;-73
2021/01/24 08:30:02;;;;;;;4.20;3.80;;;6.10;99.90;;;;;;5096499;28;20202;-73
2021/01/24 08:32:29;;;;;;;5.10;4.20;;;6.10;99.90;;;;;;5108809;28;20197;-73
2021/01/24 08:34:56;;;;;;;4.90;3.90;;;6.10;99.90;;;;;;5097133;28;20700;-73
2021/01/24 08:37:25;;;;;;;4.95;4.47;;;6.10;99.90;;;;;;5102682;28;20204;-73
2021/01/24 08:39:52;;;;;;;4.47;4.07;;;6.10;99.90;;;;;;5091306;28;20213;-74
2021/01/24 08:42:19;;;;;;;5.30;4.20;;;6.10;99.90;;;;;;5091271;28;20201;-74
2021/01/24 08:44:59;;;;;;;6.10;5.13;;;6.10;99.90;;;;;;5095802;28;20325;-74
2021/01/24 08:47:25;;;;;;;5.55;4.53;;;6.10;99.90;;;;;;5108865;28;20792;-74
2021/01/24 08:50:05;;;;;;;4.60;4.20;;;6.10;99.90;;;;;;5110435;28;20224;-74
2021/01/24 08:52:31;;;;;;;4.90;4.50;;;6.10;99.90;;;;;;5110929;28;20181;-74
2021/01/24 08:55:01;;;;;;;7.18;6.05;;;6.10;99.90;;;;;;5107228;28;20219;-73
2021/01/24 08:57:33;;;;;;;4.88;4.30;;;6.10;99.90;;;;;;5094596;28;20200;-73
2021/01/24 09:00:01;;;;;;;6.13;4.28;;;6.10;99.90;;;;;;5111248;28;20180;-73
2021/01/24 09:02:29;;;;;;;5.13;4.25;;;6.10;99.90;;;;;;5111189;28;20201;-73
2021/01/24 09:04:56;;;;;;;5.15;4.75;;;6.10;99.90;;;;;;5109140;28;20193;-73
2021/01/24 09:07:22;;;;;;;5.47;4.97;;;6.10;99.90;;;;;;5100407;28;20534;-73
2021/01/24 09:09:52;;;;;;;5.68;5.00;;;6.20;99.90;;;;;;5105851;28;20553;-73
2021/01/24 09:12:19;;;;;;;7.35;5.20;;;6.20;99.90;;;;;;5100775;28;20246;-73
2021/01/24 09:14:47;;;;;;;6.30;5.60;;;6.10;99.90;;;;;;5103912;28;20233;-73
2021/01/24 09:17:15;;;;;;;7.00;5.60;;;6.10;99.90;;;;;;5106578;28;20544;-73
2021/01/24 09:19:43;;;;;;;6.45;5.35;;;6.10;99.90;;;;;;5095933;28;20205;-73
2021/01/24 09:22:11;;;;;;;6.97;5.85;;;6.10;99.90;;;;;;5098752;28;20279;-73
2021/01/24 09:24:38;;;;;;;5.57;5.10;;;6.10;99.90;;;;;;5098606;28;20200;-73
2021/01/24 09:27:06;;;;;;;6.88;5.40;;;6.10;99.90;;;;;;5105711;28;20213;-74
2021/01/24 09:29:32;;;;;;;7.63;5.40;;;6.10;99.90;;;;;;5109682;28;20189;-74
2021/01/24 09:32:00;;;;;;;7.55;6.03;;;6.10;99.90;;;;;;5111125;28;20726;-74
2021/01/24 09:34:26;;;;;;;6.25;5.32;;;6.10;99.90;;;;;;5100182;28;20266;-74
2021/01/24 09:36:52;;;;;;;7.50;5.85;;;6.10;99.90;;;;;;5090766;28;20195;-74
2021/01/24 09:39:19;;;;;;;6.10;5.28;;;6.10;99.90;;;;;;5104173;28;20196;-73
2021/01/24 09:41:45;;;;;;;6.95;5.35;;;6.10;99.90;;;;;;5111231;28;20196;-75
2021/01/24 09:44:12;;;;;;;7.80;5.85;;;6.20;99.90;;;;;;5108481;28;20192;-72
2021/01/24 09:46:38;;;;;;;8.02;5.97;;;6.20;99.90;;;;;;5107820;28;20787;-73
2021/01/24 09:49:06;;;;;;;9.82;7.60;;;6.10;99.90;;;;;;5104605;28;20640;-74
2021/01/24 09:51:32;;;;;;;8.18;6.18;;;6.20;99.90;;;;;;5109656;28;20633;-74
2021/01/24 09:53:59;;;;;;;7.40;5.65;;;6.20;99.90;;;;;;5109414;28;20200;-74
2021/01/24 09:56:26;;;;;;;6.43;5.35;;;6.30;99.90;;;;;;5097923;28;20221;-74
2021/01/24 09:58:52;;;;;;;7.20;6.15;;;6.20;99.90;;;;;;5105763;28;20219;-73
2021/01/24 10:01:19;;;;;;;7.18;6.10;;;6.20;99.90;;;;;;5102257;28;20541;-74
2021/01/24 10:03:46;;;;;;;7.30;6.53;;;6.20;99.90;;;;;;5092731;28;20243;-75
2021/01/24 10:06:14;;;;;;;9.38;6.70;;;6.20;99.90;;;;;;5097310;28;20268;-76
2021/01/24 10:08:40;;;;;;;8.80;5.72;;;6.20;99.90;;;;;;5110726;28;20205;-76
2021/01/24 10:11:06;;;;;;;7.72;6.38;;;6.20;99.90;;;;;;5098564;28;20197;-77
2021/01/24 10:13:33;;;;;;;7.95;6.25;;;6.20;99.90;;;;;;5103477;28;20197;-77
2021/01/24 10:16:00;;;;;;;6.95;6.07;;;6.20;99.90;;;;;;5109947;28;20281;-76
2021/01/24 10:18:26;;;;;;;6.90;6.00;;;6.20;99.90;;;;;;5110949;28;20295;-76
2021/01/24 10:20:53;;;;;;;6.28;5.68;;;6.20;99.90;;;;;;5111000;28;20201;-76
2021/01/24 10:23:21;;;;;;;6.78;5.85;;;6.10;99.90;;;;;;5105444;28;20665;-76
2021/01/24 10:25:48;;;;;;;8.13;6.80;;;6.20;99.90;;;;;;5110908;28;20189;-76
2021/01/24 10:28:15;;;;;;;8.63;4.88;;;6.20;99.90;;;;;;5095671;28;20201;-76
2021/01/24 10:30:41;;;;;;;6.60;5.57;;;6.20;99.90;;;;;;5103973;28;20203;-76
2021/01/24 10:33:08;;;;;;;7.22;6.07;;;6.20;99.90;;;;;;5106685;28;20193;-77
2021/01/24 10:35:34;;;;;;;8.13;5.93;;;6.20;99.90;;;;;;5111584;28;20220;-76
2021/01/24 10:38:00;;;;;;;6.90;5.43;;;6.20;99.90;;;;;;5106408;28;20551;-77
2021/01/24 10:40:28;;;;;;;9.63;6.05;;;6.20;99.90;;;;;;5113878;28;20197;-76
2021/01/24 10:42:54;;;;;;;6.32;5.40;;;6.20;99.90;;;;;;5113923;28;20205;-76
2021/01/24 10:45:20;;;;;;;10.98;6.00;;;6.20;99.90;;;;;;5102349;28;20232;-76
2021/01/24 10:47:47;;;;;;;5.65;5.00;;;6.10;99.90;;;;;;5092750;28;20212;-77
2021/01/24 10:50:14;;;;;;;6.93;4.68;;;6.10;99.90;;;;;;5111165;28;20200;-77
2021/01/24 10:52:40;;;;;;;7.50;5.65;;;6.20;99.90;;;;;;5102602;28;20232;-76
2021/01/24 10:55:08;;;;;;;7.30;5.50;;;6.20;99.90;;;;;;5093427;28;20213;-77
2021/01/24 10:57:35;;;;;;;7.65;5.22;;;6.10;99.90;;;;;;5097732;28;20220;-76
2021/01/24 11:00:01;;;;;;;7.32;5.55;;;6.10;99.90;;;;;;5113468;28;20197;-76
2021/01/24 11:02:27;;;;;;;7.18;6.18;;;6.10;99.90;;;;;;5106832;28;20211;-76
2021/01/24 11:04:54;;;;;;;7.85;6.20;;;6.10;99.90;;;;;;5093583;28;20197;-77
2021/01/24 11:07:20;;;;;;;8.45;5.38;;;6.20;99.90;;;;;;5093764;28;20258;-76
2021/01/24 11:09:46;;;;;;;7.85;5.90;;;6.20;99.90;;;;;;5107002;28;20201;-76
2021/01/24 11:12:13;;;;;;;5.93;5.30;;;6.20;99.90;;;;;;5113534;28;20209;-73
2021/01/24 11:14:41;;;;;;;5.57;4.60;;;6.20;99.90;;;;;;5104043;28;20213;-76
2021/01/24 11:17:07;;;;;;;6.85;5.65;;;6.20;99.90;;;;;;5093652;28;20202;-77
2021/01/24 11:19:34;;;;;;;5.75;4.28;;;6.20;99.90;;;;;;5105086;28;20201;-76
2021/01/24 11:22:00;;;;;;;6.80;5.45;;;6.20;99.90;;;;;;5110235;27;20197;-75
2021/01/24 11:24:27;;;;;;;5.90;5.00;;;6.20;99.90;;;;;;5112908;28;20291;-75
2021/01/24 11:26:53;;;;;;;6.18;5.05;;;6.20;99.90;;;;;;5113065;28;20193;-75
2021/01/24 11:29:19;;;;;;;6.80;4.95;;;6.20;99.90;;;;;;5107278;28;20216;-75
2021/01/24 11:31:47;;;;;;;7.38;5.43;;;6.20;99.90;;;;;;5112785;28;20272;-73
2021/01/24 11:34:13;;;;;;;7.10;4.80;;;6.20;99.90;;;;;;5092661;28;20194;-73
2021/01/24 11:36:40;;;;;;;5.35;4.88;;;6.20;99.90;;;;;;5092333;28;20209;-74
2021/01/24 11:39:06;;;;;;;5.38;3.75;;;6.20;99.90;;;;;;5105340;28;20197;-74
2021/01/24 11:41:33;;;;;;;5.93;4.82;;;6.20;99.90;;;;;;5112347;27;20196;-74
2021/01/24 11:43:59;;;;;;;5.80;4.80;;;6.30;99.90;;;;;;5108135;28;20193;-75
2021/01/24 11:46:26;;;;;;;5.15;4.25;;;6.30;99.90;;;;;;5109075;28;20239;-75
2021/01/24 11:48:53;;;;;;;5.10;4.60;;;6.30;99.90;;;;;;5107105;28;20233;-74
2021/01/24 11:51:20;;;;;;;6.75;4.28;;;6.40;99.90;;;;;;5099598;28;20199;-75
2021/01/24 11:53:46;;;;;;;6.60;4.60;;;6.40;99.90;;;;;;5111141;28;20207;-77
2021/01/24 11:56:12;;;;;;;5.50;4.95;;;6.40;99.90;;;;;;5092359;28;20209;-75
2021/01/24 11:58:39;;;;;;;5.97;4.63;;;6.30;99.90;;;;;;5105573;28;20210;-75
2021/01/24 12:01:06;;;;;;;4.90;3.92;;;6.30;99.90;;;;;;5112092;28;20195;-75
2021/01/24 12:03:32;;;;;;;6.10;4.25;;;6.30;99.90;;;;;;5102959;28;20193;-74
2021/01/24 12:06:00;;;;;;;4.70;3.90;;;6.30;99.90;;;;;;5111783;28;20207;-76
2021/01/24 12:08:26;;;;;;;5.55;5.03;;;6.30;99.90;;;;;;5101078;28;20212;-75
2021/01/24 12:10:52;;;;;;;4.70;4.18;;;6.30;99.90;;;;;;5092353;28;20221;-76
2021/01/24 12:13:19;;;;;;;3.97;3.67;;;6.30;99.90;;;;;;5092143;28;20198;-76
2021/01/24 12:15:45;;;;;;;4.70;4.00;;;6.30;99.90;;;;;;5091977;28;20304;-73
2021/01/24 12:18:11;;;;;;;4.15;3.38;;;6.30;99.90;;;;;;5092053;28;20189;-74
2021/01/24 12:20:38;;;;;;;5.50;4.18;;;6.30;99.90;;;;;;5107452;28;20283;-72
2021/01/24 12:23:05;;;;;;;5.00;3.70;;;6.30;99.90;;;;;;5091588;28;20203;-74
2021/01/24 12:25:31;;;;;;;3.53;3.20;;;6.30;99.90;;;;;;5091857;28;20205;-74
2021/01/24 12:27:57;;;;;;;3.60;3.30;;;6.30;99.90;;;;;;5092082;28;20580;-73
2021/01/24 12:30:24;;;;;;;4.68;3.92;;;6.30;99.90;;;;;;5107748;28;20199;-74
2021/01/24 12:32:50;;;;;;;4.32;3.40;;;6.40;99.90;;;;;;5105137;28;20245;-75
2021/01/24 12:35:17;;;;;;;3.10;2.80;;;6.30;99.90;;;;;;5105177;28;20224;-74
2021/01/24 12:37:43;;;;;;;4.72;3.55;;;6.50;99.90;;;;;;5111895;28;20197;-74
2021/01/24 12:40:11;;;;;;;4.47;3.08;;;6.40;99.90;;;;;;5105243;28;20249;-74
2021/01/24 12:42:37;;;;;;;3.25;2.95;;;6.40;99.90;;;;;;5110743;28;20215;-73
2021/01/24 12:45:05;;;;;;;5.50;3.85;;;6.50;99.90;;;;;;5111474;28;20232;-73
2021/01/24 12:47:32;;;;;;;3.95;3.00;;;6.50;99.90;;;;;;5106829;28;20219;-73
2021/01/24 12:49:58;;;;;;;2.92;2.55;;;6.50;99.90;;;;;;5101980;28;20196;-75
2021/01/24 12:52:24;;;;;;;4.97;3.33;;;6.50;99.90;;;;;;5110884;28;20607;-76
2021/01/24 12:54:53;;;;;;;3.08;2.72;;;6.50;99.90;;;;;;5110855;28;20248;-74
2021/01/24 12:57:20;;;;;;;5.63;2.88;;;6.50;99.90;;;;;;5094622;28;20201;-75
2021/01/24 12:59:46;;;;;;;4.28;2.67;;;6.50;99.90;;;;;;5100578;28;20216;-74
2021/01/24 13:02:14;;;;;;;2.90;2.65;;;6.50;99.90;;;;;;5110683;28;20212;-76